Time;durP1;ratioP1;P1;durP2;ratioP2;P2;SDS_P1;SDS_P2;PMS_P1;PMS_P2;Temp;Humidity;BMP_temperature;BMP_pressure;BME280_temperature;BME280_humidity;BME280_pressure;Samples;Min_cycle;Max_cycle;Signal;HPM_P1;HPM_P2
2023/06/23 00:00:52;;;;;;;15.70;13.88;;;18.90;99.90;;;;;;4925662;29;20055;-75
2023/06/23 00:03:27;;;;;;;17.05;15.25;;;18.80;99.90;;;;;;4955080;28;20057;-74
2023/06/23 00:05:53;;;;;;;16.73;13.90;;;18.80;99.90;;;;;;4942317;28;20086;-74
2023/06/23 00:08:20;;;;;;;16.70;14.43;;;18.80;99.90;;;;;;4933339;28;20097;-74
2023/06/23 00:11:07;;;;;;;18.35;16.13;;;18.70;99.90;;;;;;4978513;28;20642;-73
2023/06/23 00:13:34;;;;;;;18.05;16.15;;;18.70;99.90;;;;;;4980181;28;20046;-73
2023/06/23 00:16:22;;;;;;;18.25;16.33;;;18.70;99.90;;;;;;4996382;28;20056;-74
2023/06/23 00:19:07;;;;;;;19.23;16.80;;;18.60;99.90;;;;;;5001052;28;20091;-74
2023/06/23 00:21:34;;;;;;;16.73;14.98;;;18.60;99.90;;;;;;5019987;28;20134;-73
2023/06/23 00:24:07;;;;;;;16.75;14.95;;;18.60;99.90;;;;;;5022782;28;20739;-74
2023/06/23 00:26:34;;;;;;;16.27;14.45;;;18.60;99.90;;;;;;5017672;28;20276;-74
2023/06/23 00:29:05;;;;;;;17.50;14.70;;;18.60;99.90;;;;;;5005427;28;20041;-73
2023/06/23 00:31:34;;;;;;;15.23;13.70;;;18.50;99.90;;;;;;5030311;28;20504;-74
2023/06/23 00:34:03;;;;;;;15.10;13.55;;;18.50;99.90;;;;;;5017007;28;20094;-73
2023/06/23 00:36:35;;;;;;;16.90;15.05;;;18.50;99.90;;;;;;5022261;28;20052;-77
2023/06/23 00:39:02;;;;;;;18.73;16.42;;;18.50;99.90;;;;;;4997458;28;20056;-76
2023/06/23 00:41:30;;;;;;;17.08;15.38;;;18.50;99.90;;;;;;5000339;28;20523;-75
2023/06/23 00:43:59;;;;;;;18.80;16.80;;;18.40;99.90;;;;;;5000274;28;20053;-75
2023/06/23 00:46:33;;;;;;;17.77;15.35;;;17.90;99.90;;;;;;5022785;28;20522;-73
2023/06/23 00:49:00;;;;;;;16.00;13.73;;;18.40;99.90;;;;;;5004954;28;20515;-74
2023/06/23 00:51:33;;;;;;;17.20;14.00;;;18.40;99.90;;;;;;4987799;28;20123;-73
2023/06/23 00:54:06;;;;;;;17.17;15.10;;;18.40;99.90;;;;;;5015623;28;20114;-76
2023/06/23 00:56:35;;;;;;;15.43;13.80;;;18.30;99.90;;;;;;5005885;28;20453;-75
2023/06/23 00:59:02;;;;;;;14.95;12.90;;;18.30;99.90;;;;;;5000464;28;20077;-73
2023/06/23 01:01:37;;;;;;;13.48;11.90;;;18.30;99.90;;;;;;4999324;28;21071;-77
2023/06/23 01:04:03;;;;;;;15.00;12.73;;;18.30;99.90;;;;;;5022216;28;20057;-73
2023/06/23 01:06:46;;;;;;;14.38;12.55;;;18.30;99.90;;;;;;4981491;28;20057;-74
2023/06/23 01:09:36;;;;;;;15.40;13.52;;;18.30;99.90;;;;;;5034463;28;20049;-74
2023/06/23 01:12:16;;;;;;;15.90;13.38;;;18.30;99.90;;;;;;5004728;28;20052;-75
2023/06/23 01:15:30;;;;;;;17.70;14.30;;;18.30;99.90;;;;;;5034784;28;20057;-74
2023/06/23 01:18:24;;;;;;;16.25;14.52;;;18.30;99.90;;;;;;5036128;28;20056;-73
2023/06/23 01:20:52;;;;;;;15.10;13.57;;;18.20;99.90;;;;;;5034189;28;20053;-74
2023/06/23 01:23:53;;;;;;;14.43;12.93;;;18.20;99.90;;;;;;5003737;28;20076;-75
2023/06/23 01:26:41;;;;;;;18.92;14.50;;;18.20;99.90;;;;;;5008155;28;20048;-73
2023/06/23 01:29:09;;;;;;;17.33;14.10;;;18.20;99.90;;;;;;5001522;28;20037;-74
2023/06/23 01:32:10;;;;;;;15.40;13.80;;;18.20;99.90;;;;;;4990324;28;20061;-74
2023/06/23 01:34:58;;;;;;;14.95;12.63;;;18.10;99.90;;;;;;4999248;28;20058;-74
2023/06/23 01:37:32;;;;;;;16.17;13.50;;;18.10;99.90;;;;;;4981731;28;20571;-74
2023/06/23 01:40:21;;;;;;;15.55;13.13;;;18.10;99.90;;;;;;5004279;28;20556;-75
2023/06/23 01:43:04;;;;;;;15.90;12.50;;;18.10;99.90;;;;;;4997016;28;20041;-75
2023/06/23 01:45:34;;;;;;;17.70;13.43;;;18.10;99.90;;;;;;5003954;28;20118;-74
2023/06/23 01:48:13;;;;;;;16.45;13.82;;;18.00;99.90;;;;;;5015969;28;20482;-74
2023/06/23 01:51:02;;;;;;;19.05;13.18;;;18.00;99.90;;;;;;5015556;28;20104;-75
2023/06/23 01:53:32;;;;;;;16.25;12.60;;;18.00;99.90;;;;;;4998874;28;20053;-74
2023/06/23 01:56:09;;;;;;;16.73;13.88;;;18.00;99.90;;;;;;5004165;28;20065;-76
2023/06/23 01:58:40;;;;;;;17.33;14.00;;;18.00;99.90;;;;;;4998563;28;20101;-78
2023/06/23 02:01:07;;;;;;;17.38;13.82;;;18.00;99.90;;;;;;4988758;28;20046;-73
2023/06/23 02:03:34;;;;;;;22.13;14.88;;;17.90;99.90;;;;;;5005502;28;20049;-74
2023/06/23 02:06:01;;;;;;;18.95;15.93;;;18.00;99.90;;;;;;5004550;28;20636;-73
2023/06/23 02:08:28;;;;;;;18.77;15.40;;;17.90;99.90;;;;;;5005773;28;20049;-76
2023/06/23 02:10:56;;;;;;;18.05;14.95;;;17.90;99.90;;;;;;5014862;28;20124;-74
2023/06/23 02:13:24;;;;;;;18.05;14.80;;;17.90;99.90;;;;;;5023755;28;20052;-74
2023/06/23 02:15:52;;;;;;;17.70;15.02;;;17.80;99.90;;;;;;5007780;28;20140;-75
2023/06/23 02:18:20;;;;;;;18.38;15.50;;;17.80;99.90;;;;;;5019250;28;20032;-75
2023/06/23 02:21:08;;;;;;;20.77;16.00;;;17.80;99.90;;;;;;4988805;28;21084;-75
2023/06/23 02:23:36;;;;;;;18.95;16.10;;;17.80;99.90;;;;;;4999874;28;20055;-74
2023/06/23 02:26:12;;;;;;;20.08;15.70;;;17.80;99.90;;;;;;5021100;28;20145;-75
2023/06/23 02:28:38;;;;;;;24.50;18.77;;;17.80;99.90;;;;;;4972468;28;20412;-74
2023/06/23 02:31:09;;;;;;;20.52;17.38;;;17.80;99.90;;;;;;5036138;28;20102;-74
2023/06/23 02:33:52;;;;;;;21.33;17.70;;;17.80;99.90;;;;;;5008063;28;20059;-74
2023/06/23 02:37:04;;;;;;;22.77;17.13;;;17.80;99.90;;;;;;5010987;28;20063;-77
2023/06/23 02:39:52;;;;;;;18.48;15.00;;;17.80;99.90;;;;;;5020106;28;20389;-76
2023/06/23 02:42:31;;;;;;;17.30;14.35;;;17.70;99.90;;;;;;5019784;28;20079;-77
2023/06/23 02:45:34;;;;;;;19.52;14.20;;;17.70;99.90;;;;;;5020252;28;20068;-74
2023/06/23 02:48:29;;;;;;;16.15;13.25;;;17.70;99.90;;;;;;5018121;28;20041;-74
2023/06/23 02:50:58;;;;;;;16.30;12.75;;;17.70;99.90;;;;;;5017137;28;20076;-75
2023/06/23 02:53:34;;;;;;;14.32;11.82;;;17.70;99.90;;;;;;5018715;28;20550;-76
2023/06/23 02:56:07;;;;;;;12.80;10.40;;;17.70;99.90;;;;;;5000774;28;20159;-74
2023/06/23 02:58:34;;;;;;;14.48;11.18;;;18.20;99.90;;;;;;5016334;28;20045;-73
2023/06/23 03:01:22;;;;;;;13.57;10.73;;;17.70;99.90;;;;;;5010472;28;20098;-74
2023/06/23 03:03:51;;;;;;;13.88;9.85;;;17.70;99.90;;;;;;5008164;28;21460;-76
2023/06/23 03:06:21;;;;;;;14.15;10.05;;;17.70;99.90;;;;;;4983168;28;20132;-74
2023/06/23 03:09:03;;;;;;;13.00;9.98;;;17.60;99.90;;;;;;5026172;28;20211;-75
2023/06/23 03:11:41;;;;;;;11.65;9.77;;;17.70;99.90;;;;;;5033813;28;20061;-76
2023/06/23 03:14:19;;;;;;;13.63;10.65;;;17.60;99.90;;;;;;5009273;28;20048;-75
2023/06/23 03:17:07;;;;;;;17.08;11.57;;;17.60;99.90;;;;;;5022288;28;20514;-76
2023/06/23 03:20:24;;;;;;;14.10;11.50;;;17.60;99.90;;;;;;4992709;28;20527;-73
2023/06/23 03:23:11;;;;;;;15.40;12.25;;;17.60;99.90;;;;;;4974303;28;20054;-73
2023/06/23 03:25:40;;;;;;;14.85;12.07;;;17.60;99.90;;;;;;4994568;28;20054;-73
2023/06/23 03:28:25;;;;;;;12.27;10.95;;;17.50;99.90;;;;;;4945316;28;20783;-75
2023/06/23 03:31:05;;;;;;;15.77;11.90;;;17.60;99.90;;;;;;4962144;28;20054;-74
2023/06/23 03:33:40;;;;;;;13.48;11.60;;;17.60;99.90;;;;;;4975879;28;20610;-72
2023/06/23 03:36:24;;;;;;;17.52;12.52;;;17.60;99.90;;;;;;4966407;28;20057;-72
2023/06/23 03:39:21;;;;;;;15.48;10.48;;;17.60;99.90;;;;;;4983444;28;20755;-73
2023/06/23 03:41:56;;;;;;;13.50;10.32;;;17.60;99.90;;;;;;4971642;28;20412;-72
2023/06/23 03:44:46;;;;;;;11.18;9.20;;;17.60;99.90;;;;;;4966314;28;20062;-73
2023/06/23 03:47:27;;;;;;;14.80;10.97;;;17.60;99.90;;;;;;4978803;28;20052;-71
2023/06/23 03:50:24;;;;;;;11.60;10.10;;;17.50;99.90;;;;;;4977949;28;20291;-73
2023/06/23 03:53:17;;;;;;;13.93;10.27;;;17.50;99.90;;;;;;5034987;28;20049;-73
2023/06/23 03:55:47;;;;;;;14.73;11.10;;;17.50;99.90;;;;;;5031517;28;20343;-74
2023/06/23 03:58:34;;;;;;;20.95;12.05;;;17.50;99.90;;;;;;5017961;28;20164;-73
2023/06/23 04:01:06;;;;;;;18.17;11.90;;;17.50;99.90;;;;;;5019357;28;20045;-74
2023/06/23 04:03:38;;;;;;;17.80;11.27;;;17.60;99.90;;;;;;5002461;28;20065;-73
2023/06/23 04:06:10;;;;;;;14.05;10.57;;;17.60;99.90;;;;;;5038404;28;20045;-73
2023/06/23 04:08:58;;;;;;;14.35;10.07;;;17.60;99.90;;;;;;5021165;28;20072;-73
2023/06/23 04:11:54;;;;;;;14.73;11.00;;;17.70;99.90;;;;;;5014609;28;20083;-73
2023/06/23 04:14:46;;;;;;;16.73;10.88;;;17.70;99.90;;;;;;5035221;28;20043;-74
2023/06/23 04:17:13;;;;;;;15.63;10.98;;;17.70;99.90;;;;;;5007647;28;20228;-75
2023/06/23 04:19:44;;;;;;;12.63;9.70;;;17.70;99.90;;;;;;5019632;28;20518;-77
2023/06/23 04:22:19;;;;;;;12.85;10.25;;;17.70;99.90;;;;;;5022247;28;20041;-74
2023/06/23 04:24:48;;;;;;;13.63;9.35;;;17.80;99.90;;;;;;5024675;28;20069;-73
2023/06/23 04:27:24;;;;;;;14.80;9.75;;;17.70;99.90;;;;;;5025111;28;20056;-75
2023/06/23 04:29:51;;;;;;;15.25;9.73;;;17.80;99.90;;;;;;5023668;28;20081;-76
2023/06/23 04:32:24;;;;;;;15.68;10.77;;;17.80;99.90;;;;;;5019669;28;20186;-76
2023/06/23 04:34:52;;;;;;;15.80;10.82;;;17.90;99.90;;;;;;5019727;28;20045;-74
2023/06/23 04:37:21;;;;;;;14.80;10.90;;;17.90;99.90;;;;;;5023244;28;20052;-78
2023/06/23 04:39:58;;;;;;;15.98;11.45;;;18.00;99.90;;;;;;5020383;28;21368;-77
2023/06/23 04:42:39;;;;;;;13.02;9.93;;;18.00;99.90;;;;;;5008484;28;20050;-74
2023/06/23 04:45:07;;;;;;;13.75;10.48;;;18.00;99.90;;;;;;5027054;28;20120;-74
2023/06/23 04:47:44;;;;;;;13.18;9.95;;;18.00;99.90;;;;;;4989443;28;20459;-76
2023/06/23 04:50:14;;;;;;;12.98;9.80;;;18.00;99.90;;;;;;5038224;28;20061;-76
2023/06/23 04:52:49;;;;;;;12.60;9.35;;;18.00;99.90;;;;;;5007959;28;20056;-74
2023/06/23 04:55:18;;;;;;;13.70;9.50;;;17.90;99.90;;;;;;5033424;28;20048;-70
2023/06/23 04:57:46;;;;;;;13.27;10.10;;;18.00;99.90;;;;;;5018079;28;20127;-70
2023/06/23 05:00:16;;;;;;;12.63;8.80;;;18.00;99.90;;;;;;5015957;28;20053;-69
2023/06/23 05:02:45;;;;;;;10.50;8.70;;;18.10;99.90;;;;;;5023005;28;20080;-70
2023/06/23 05:05:27;;;;;;;9.38;8.32;;;18.10;99.90;;;;;;5014665;28;20045;-76
2023/06/23 05:08:03;;;;;;;13.45;9.77;;;17.10;99.90;;;;;;5004669;28;20064;-75
2023/06/23 05:10:46;;;;;;;13.80;9.80;;;18.20;99.90;;;;;;5032119;28;20096;-77
2023/06/23 05:13:27;;;;;;;15.10;9.77;;;18.20;99.90;;;;;;5036341;28;20040;-73
2023/06/23 05:15:53;;;;;;;11.55;9.13;;;18.00;99.90;;;;;;5004103;28;20508;-73
2023/06/23 05:18:23;;;;;;;11.07;8.27;;;18.20;99.90;;;;;;5026331;28;20131;-73
2023/06/23 05:21:01;;;;;;;9.57;8.43;;;18.20;99.90;;;;;;5019176;28;20045;-73
2023/06/23 05:23:49;;;;;;;12.32;8.98;;;18.20;99.90;;;;;;5019670;28;20735;-76
2023/06/23 05:26:16;;;;;;;14.15;9.07;;;18.30;99.90;;;;;;5000258;28;20057;-71
2023/06/23 05:28:46;;;;;;;13.15;9.32;;;18.30;99.90;;;;;;5019547;28;20053;-71
2023/06/23 05:31:15;;;;;;;11.80;8.75;;;18.30;99.90;;;;;;5002752;28;20044;-71
2023/06/23 05:33:44;;;;;;;11.48;8.30;;;18.40;99.90;;;;;;4984407;28;20182;-71
2023/06/23 05:36:12;;;;;;;13.65;8.98;;;18.40;99.90;;;;;;5004573;28;20045;-71
2023/06/23 05:38:41;;;;;;;11.85;9.30;;;18.50;99.90;;;;;;5033710;28;20060;-71
2023/06/23 05:41:07;;;;;;;11.18;9.63;;;18.50;99.90;;;;;;5022505;28;20053;-70
2023/06/23 05:43:32;;;;;;;13.27;9.90;;;18.60;99.90;;;;;;5001086;28;20613;-70
2023/06/23 05:45:59;;;;;;;13.82;10.23;;;18.70;99.90;;;;;;4986951;28;20205;-70
2023/06/23 05:48:41;;;;;;;14.55;10.18;;;18.70;99.90;;;;;;5002238;28;20052;-72
2023/06/23 05:51:11;;;;;;;13.10;8.07;;;18.80;99.90;;;;;;4999270;28;20058;-72
2023/06/23 05:53:41;;;;;;;11.15;7.00;;;19.00;99.90;;;;;;5019924;28;20530;-70
2023/06/23 05:56:25;;;;;;;11.13;6.82;;;19.00;99.90;;;;;;5004079;28;20110;-69
2023/06/23 05:58:57;;;;;;;10.25;6.80;;;19.10;99.90;;;;;;5034142;28;20210;-69
2023/06/23 06:01:25;;;;;;;8.50;6.50;;;19.20;99.90;;;;;;5023763;28;20048;-70
2023/06/23 06:04:16;;;;;;;9.23;6.45;;;19.20;99.90;;;;;;5003066;28;20124;-70
2023/06/23 06:06:44;;;;;;;10.88;6.20;;;19.20;99.90;;;;;;5017456;28;20044;-72
2023/06/23 06:09:11;;;;;;;8.07;5.90;;;19.20;99.90;;;;;;5019223;28;20056;-69
2023/06/23 06:11:40;;;;;;;9.25;5.65;;;19.30;99.90;;;;;;5021880;28;20060;-70
2023/06/23 06:14:11;;;;;;;8.98;6.10;;;19.30;99.90;;;;;;5035638;28;20056;-70
2023/06/23 06:16:37;;;;;;;11.43;5.68;;;19.40;99.90;;;;;;5023343;28;20049;-70
2023/06/23 06:19:05;;;;;;;7.45;5.07;;;19.50;99.90;;;;;;5018453;28;20056;-70
2023/06/23 06:21:33;;;;;;;10.68;5.97;;;19.50;99.90;;;;;;5018589;28;20099;-72
2023/06/23 06:24:00;;;;;;;11.68;5.38;;;19.60;99.90;;;;;;5016618;28;20059;-71
2023/06/23 06:26:26;;;;;;;9.45;5.80;;;19.70;99.90;;;;;;5034531;28;20045;-71
2023/06/23 06:28:54;;;;;;;9.55;6.22;;;19.80;99.90;;;;;;5022709;28;20049;-71
2023/06/23 06:31:23;;;;;;;7.60;6.13;;;19.80;99.90;;;;;;5005372;28;20060;-72
2023/06/23 06:33:52;;;;;;;8.45;5.55;;;20.00;99.90;;;;;;5022706;28;20128;-71
2023/06/23 06:36:20;;;;;;;7.40;4.90;;;20.10;99.90;;;;;;5050256;28;20072;-71
2023/06/23 06:38:49;;;;;;;6.18;4.70;;;20.10;99.90;;;;;;5021212;28;20076;-72
2023/06/23 06:41:16;;;;;;;7.78;4.78;;;20.30;99.90;;;;;;5033736;28;20041;-71
2023/06/23 06:43:44;;;;;;;6.65;4.70;;;20.40;99.90;;;;;;5004749;28;20069;-70
2023/06/23 06:46:11;;;;;;;6.57;4.53;;;20.50;99.90;;;;;;5022662;28;20084;-72
2023/06/23 06:48:38;;;;;;;7.78;4.30;;;20.50;99.90;;;;;;5001927;28;20467;-71
2023/06/23 06:51:11;;;;;;;6.70;4.45;;;20.50;99.90;;;;;;5003683;28;20045;-75
2023/06/23 06:53:43;;;;;;;5.25;4.00;;;20.70;99.90;;;;;;5020437;28;20928;-72
2023/06/23 06:56:09;;;;;;;6.03;3.80;;;20.80;99.90;;;;;;5017876;28;20478;-71
2023/06/23 06:58:35;;;;;;;5.60;4.00;;;20.90;99.90;;;;;;5015564;28;20044;-70
2023/06/23 07:01:03;;;;;;;6.70;4.10;;;20.30;99.90;;;;;;5001553;28;20041;-71
2023/06/23 07:03:45;;;;;;;7.10;4.25;;;21.10;99.90;;;;;;5005581;28;20145;-76
2023/06/23 07:06:12;;;;;;;7.60;4.32;;;21.30;99.90;;;;;;5020979;28;20072;-69
2023/06/23 07:08:39;;;;;;;5.93;3.95;;;21.40;99.90;;;;;;5016897;28;20053;-70
2023/06/23 07:11:05;;;;;;;8.15;3.70;;;21.50;99.90;;;;;;4983219;28;20049;-70
2023/06/23 07:13:31;;;;;;;6.22;4.13;;;21.60;99.90;;;;;;5020932;28;20497;-70
2023/06/23 07:15:56;;;;;;;5.82;3.83;;;21.70;99.90;;;;;;5049289;28;20045;-70
2023/06/23 07:18:24;;;;;;;5.80;3.95;;;21.80;99.90;;;;;;5022520;28;20474;-72
2023/06/23 07:20:50;;;;;;;6.07;4.60;;;21.80;99.90;;;;;;5021718;28;20080;-70
2023/06/23 07:23:16;;;;;;;5.60;4.22;;;21.90;99.90;;;;;;5018154;28;20053;-70
2023/06/23 07:25:42;;;;;;;5.15;4.20;;;21.80;99.90;;;;;;5001141;28;20139;-71
2023/06/23 07:28:08;;;;;;;6.55;4.28;;;21.70;99.90;;;;;;5033564;28;20509;-71
2023/06/23 07:30:34;;;;;;;6.13;4.25;;;21.70;99.90;;;;;;5020337;28;20045;-70
2023/06/23 07:32:59;;;;;;;7.30;4.65;;;21.70;99.90;;;;;;5019299;28;20107;-71
2023/06/23 07:35:25;;;;;;;7.45;4.93;;;21.70;99.90;;;;;;5003700;28;20057;-74
2023/06/23 07:37:51;;;;;;;6.38;4.47;;;21.70;99.90;;;;;;5048247;28;20430;-75
2023/06/23 07:40:17;;;;;;;6.68;4.43;;;21.70;99.90;;;;;;5021650;28;20102;-72
2023/06/23 07:42:42;;;;;;;5.75;4.75;;;21.80;99.90;;;;;;5017930;28;20067;-74
2023/06/23 07:45:09;;;;;;;6.85;5.32;;;21.90;99.90;;;;;;5022979;28;20499;-74
2023/06/23 07:47:34;;;;;;;6.45;4.60;;;22.10;99.90;;;;;;5030085;28;20041;-73
2023/06/23 07:50:00;;;;;;;6.35;4.60;;;22.40;99.90;;;;;;5022145;28;21427;-75
2023/06/23 07:52:27;;;;;;;8.85;4.72;;;22.60;99.90;;;;;;5006239;28;20048;-77
2023/06/23 07:54:53;;;;;;;5.90;4.65;;;22.80;99.90;;;;;;5017588;28;20078;-72
2023/06/23 07:57:20;;;;;;;6.32;4.40;;;23.00;99.90;;;;;;5052000;28;20110;-70
2023/06/23 07:59:45;;;;;;;10.27;5.65;;;23.10;99.90;;;;;;5017800;28;20056;-71
2023/06/23 08:02:11;;;;;;;7.55;4.72;;;23.30;99.90;;;;;;5003086;28;20045;-72
2023/06/23 08:04:37;;;;;;;7.30;5.72;;;23.50;99.90;;;;;;4999004;28;20056;-71
2023/06/23 08:07:04;;;;;;;7.97;5.05;;;23.30;99.90;;;;;;4987380;28;20437;-77
2023/06/23 08:09:31;;;;;;;7.28;5.13;;;23.80;99.90;;;;;;5017929;28;20124;-75
2023/06/23 08:11:57;;;;;;;6.40;4.68;;;23.30;99.90;;;;;;5006769;28;20140;-75
2023/06/23 08:14:22;;;;;;;7.38;4.50;;;24.10;99.90;;;;;;5035915;28;20801;-72
2023/06/23 08:16:48;;;;;;;9.38;4.70;;;24.20;99.90;;;;;;5004178;28;20499;-73
2023/06/23 08:19:14;;;;;;;11.07;4.80;;;24.20;99.90;;;;;;5023719;28;20045;-74
2023/06/23 08:21:42;;;;;;;7.15;4.82;;;24.20;99.90;;;;;;5021673;28;20392;-72
2023/06/23 08:24:08;;;;;;;6.55;5.03;;;24.20;99.90;;;;;;5022402;28;20414;-73
2023/06/23 08:26:33;;;;;;;8.05;5.28;;;24.40;99.90;;;;;;5004680;28;20452;-72
2023/06/23 08:29:03;;;;;;;6.88;4.63;;;23.80;99.90;;;;;;5018591;28;20041;-72
2023/06/23 08:31:30;;;;;;;6.00;4.03;;;24.60;99.90;;;;;;5003673;28;20045;-74
2023/06/23 08:33:55;;;;;;;7.38;4.30;;;24.30;99.90;;;;;;5033325;28;20051;-72
2023/06/23 08:36:21;;;;;;;8.10;4.50;;;24.90;99.90;;;;;;5015455;28;20607;-71
2023/06/23 08:38:47;;;;;;;6.40;4.82;;;25.10;99.90;;;;;;5022224;28;20037;-71
2023/06/23 08:41:14;;;;;;;5.45;4.32;;;25.10;99.90;;;;;;5001710;28;21471;-71
2023/06/23 08:43:45;;;;;;;6.15;4.00;;;25.10;99.90;;;;;;5022516;28;20057;-71
2023/06/23 08:46:14;;;;;;;5.55;4.35;;;25.10;99.90;;;;;;5021654;28;20075;-71
2023/06/23 08:48:45;;;;;;;6.03;4.18;;;25.20;99.90;;;;;;5019710;28;20063;-71
2023/06/23 08:51:13;;;;;;;6.25;4.43;;;25.30;99.90;;;;;;5020645;28;20060;-74
2023/06/23 08:53:39;;;;;;;6.20;4.18;;;25.40;99.90;;;;;;5019087;28;20081;-72
2023/06/23 08:56:06;;;;;;;8.07;3.90;;;25.50;99.90;;;;;;5001230;28;20045;-72
2023/06/23 08:58:32;;;;;;;8.00;4.10;;;25.70;99.90;;;;;;5020501;28;20049;-73
2023/06/23 09:00:58;;;;;;;5.90;3.80;;;25.60;99.90;;;;;;5018839;28;20045;-72
2023/06/23 09:03:24;;;;;;;5.40;3.92;;;25.30;99.90;;;;;;5014584;28;20072;-73
2023/06/23 09:05:50;;;;;;;5.63;3.95;;;25.30;99.90;;;;;;4995522;28;20206;-72
2023/06/23 09:08:16;;;;;;;5.28;3.83;;;25.30;99.90;;;;;;5022359;28;20087;-72
2023/06/23 09:10:42;;;;;;;6.03;4.03;;;25.30;99.90;;;;;;5012838;28;20122;-70
2023/06/23 09:13:17;;;;;;;8.05;4.10;;;25.30;99.90;;;;;;5011459;28;20175;-72
2023/06/23 09:15:47;;;;;;;6.63;4.47;;;25.30;99.90;;;;;;5018600;28;20400;-73
2023/06/23 09:18:15;;;;;;;4.63;4.00;;;25.30;99.90;;;;;;5013251;28;20041;-74
2023/06/23 09:20:45;;;;;;;6.78;4.25;;;25.60;99.90;;;;;;5013980;28;20061;-70
2023/06/23 09:23:16;;;;;;;5.65;4.00;;;25.50;99.90;;;;;;5022859;28;20049;-71
2023/06/23 09:25:44;;;;;;;5.38;3.70;;;25.50;99.90;;;;;;5006219;28;20122;-70
2023/06/23 09:28:30;;;;;;;8.00;3.53;;;25.50;99.90;;;;;;5007097;28;20053;-70
2023/06/23 09:31:13;;;;;;;4.22;3.80;;;25.50;99.90;;;;;;5036588;28;20819;-70
2023/06/23 09:33:46;;;;;;;5.88;3.47;;;25.50;99.90;;;;;;5052990;28;20068;-71
2023/06/23 09:36:12;;;;;;;6.97;3.80;;;25.60;99.90;;;;;;5020997;28;20056;-71
2023/06/23 09:38:39;;;;;;;6.75;3.58;;;25.70;99.90;;;;;;5033256;28;20415;-72
2023/06/23 09:41:16;;;;;;;7.70;3.60;;;25.80;99.90;;;;;;5037307;28;20076;-72
2023/06/23 09:43:45;;;;;;;8.73;4.00;;;26.10;99.90;;;;;;5021949;28;20114;-72
2023/06/23 09:46:15;;;;;;;5.88;3.63;;;26.10;99.90;;;;;;5020884;28;20525;-72
2023/06/23 09:48:46;;;;;;;8.13;4.10;;;25.90;99.90;;;;;;5025307;28;20525;-72
2023/06/23 09:51:12;;;;;;;6.07;3.70;;;26.00;99.90;;;;;;5006967;28;20041;-72
2023/06/23 09:53:42;;;;;;;5.25;3.10;;;25.80;99.90;;;;;;5025316;28;20061;-72
2023/06/23 09:56:16;;;;;;;5.05;2.90;;;25.80;99.90;;;;;;5009105;28;20052;-72
2023/06/23 09:58:47;;;;;;;5.38;3.60;;;25.80;99.90;;;;;;5040884;28;20107;-72
2023/06/23 10:01:17;;;;;;;4.20;3.20;;;25.90;99.90;;;;;;5018317;28;20063;-73
2023/06/23 10:03:44;;;;;;;6.38;3.45;;;26.10;99.90;;;;;;5021101;28;20059;-72
2023/06/23 10:06:28;;;;;;;5.30;2.95;;;26.20;99.90;;;;;;5040956;28;20091;-72
2023/06/23 10:09:00;;;;;;;3.90;2.97;;;26.20;99.90;;;;;;5022339;28;20372;-72
2023/06/23 10:11:37;;;;;;;8.50;3.55;;;26.10;99.90;;;;;;5025112;28;20041;-73
2023/06/23 10:14:06;;;;;;;5.28;2.90;;;26.10;99.90;;;;;;5020255;28;20267;-73
2023/06/23 10:16:34;;;;;;;5.43;2.92;;;26.20;99.90;;;;;;5014605;28;20804;-72
2023/06/23 10:19:00;;;;;;;4.55;2.80;;;26.20;99.90;;;;;;5022242;28;20136;-72
2023/06/23 10:21:28;;;;;;;6.32;2.70;;;26.30;99.90;;;;;;5023697;28;20490;-72
2023/06/23 10:23:59;;;;;;;7.43;2.90;;;26.40;99.90;;;;;;5007721;28;20128;-73
2023/06/23 10:26:26;;;;;;;5.00;2.85;;;26.40;99.60;;;;;;5018821;28;20104;-72
2023/06/23 10:28:54;;;;;;;4.93;2.70;;;26.20;99.50;;;;;;5021745;28;20526;-72
2023/06/23 10:31:21;;;;;;;5.43;2.90;;;26.00;99.70;;;;;;5023876;28;20056;-74
2023/06/23 10:33:49;;;;;;;6.22;3.03;;;26.10;99.90;;;;;;5022956;28;20057;-73
2023/06/23 10:36:20;;;;;;;4.05;2.67;;;26.20;99.90;;;;;;5019526;28;20693;-73
2023/06/23 10:38:50;;;;;;;4.97;2.88;;;26.40;99.70;;;;;;5008443;28;20519;-72
2023/06/23 10:41:18;;;;;;;4.72;2.42;;;26.50;99.10;;;;;;5020824;28;20125;-73
2023/06/23 10:43:47;;;;;;;5.55;2.88;;;26.50;99.20;;;;;;5011091;28;20114;-73
2023/06/23 10:46:13;;;;;;;5.40;2.75;;;26.50;98.90;;;;;;5035355;28;20099;-72
2023/06/23 10:48:41;;;;;;;4.03;2.47;;;26.50;99.10;;;;;;5025060;28;20049;-72
2023/06/23 10:51:09;;;;;;;4.97;2.60;;;26.60;98.90;;;;;;5054108;28;20493;-73
2023/06/23 10:53:44;;;;;;;4.32;2.75;;;26.60;98.40;;;;;;5023977;28;20515;-72
2023/06/23 10:56:10;;;;;;;4.78;2.30;;;26.80;98.30;;;;;;5022606;28;20393;-72
2023/06/23 10:58:50;;;;;;;5.15;2.70;;;26.80;98.00;;;;;;5004062;28;20554;-72
2023/06/23 11:01:16;;;;;;;5.40;2.60;;;26.80;97.20;;;;;;5022506;28;20153;-73
2023/06/23 11:03:41;;;;;;;5.25;2.78;;;26.80;97.80;;;;;;5025486;28;20052;-73
2023/06/23 11:06:11;;;;;;;4.57;2.60;;;26.80;97.70;;;;;;5001861;28;20444;-72
2023/06/23 11:08:44;;;;;;;6.70;2.55;;;26.90;97.60;;;;;;5009247;28;20057;-72
2023/06/23 11:11:11;;;;;;;6.78;2.50;;;26.90;97.30;;;;;;5007456;28;20049;-72
2023/06/23 11:13:45;;;;;;;5.50;2.55;;;26.90;97.20;;;;;;5008137;28;20068;-72
2023/06/23 11:16:18;;;;;;;5.43;2.60;;;26.80;97.20;;;;;;5016781;28;20077;-72
2023/06/23 11:18:49;;;;;;;4.57;2.60;;;26.80;97.10;;;;;;5021470;28;20057;-72
2023/06/23 11:21:28;;;;;;;4.20;2.65;;;27.10;97.10;;;;;;5036762;28;20041;-72
2023/06/23 11:24:11;;;;;;;3.80;2.58;;;27.30;96.60;;;;;;5003734;28;20829;-72
2023/06/23 11:26:55;;;;;;;4.60;2.45;;;27.50;96.20;;;;;;5015102;28;20059;-73
2023/06/23 11:29:24;;;;;;;3.28;2.35;;;27.60;96.30;;;;;;5017098;28;20091;-73
2023/06/23 11:32:19;;;;;;;5.15;2.70;;;27.60;96.00;;;;;;5025324;28;20057;-72
2023/06/23 11:35:01;;;;;;;4.85;2.60;;;27.70;95.60;;;;;;5026158;28;20383;-71
2023/06/23 11:37:28;;;;;;;4.40;2.40;;;27.60;95.50;;;;;;5024839;28;20520;-70
2023/06/23 11:39:55;;;;;;;4.35;2.80;;;27.20;96.00;;;;;;5037349;28;20052;-71
2023/06/23 11:42:23;;;;;;;4.15;2.60;;;27.10;96.00;;;;;;4998916;28;20049;-72
2023/06/23 11:44:49;;;;;;;5.18;2.17;;;27.00;95.90;;;;;;5020114;28;20216;-72
2023/06/23 11:47:16;;;;;;;7.38;2.40;;;26.90;95.80;;;;;;5002886;28;20203;-73
2023/06/23 11:49:43;;;;;;;4.15;2.22;;;27.00;95.40;;;;;;5037957;28;20084;-72
2023/06/23 11:52:09;;;;;;;4.65;2.33;;;27.00;94.80;;;;;;5022302;28;20041;-71
2023/06/23 11:54:35;;;;;;;5.07;2.38;;;27.00;94.50;;;;;;5002359;28;20068;-72
2023/06/23 11:57:05;;;;;;;6.25;2.60;;;27.00;94.10;;;;;;5020578;28;20485;-72
2023/06/23 11:59:35;;;;;;;3.92;2.50;;;27.20;93.80;;;;;;5003214;28;20049;-72
2023/06/23 12:02:02;;;;;;;5.30;2.60;;;27.30;93.80;;;;;;5008689;28;20040;-74
2023/06/23 12:04:28;;;;;;;5.10;2.30;;;27.60;93.70;;;;;;5007245;28;20053;-73
2023/06/23 12:06:54;;;;;;;4.68;2.30;;;27.60;93.50;;;;;;5037205;28;20495;-73
2023/06/23 12:09:20;;;;;;;5.03;2.80;;;27.30;93.50;;;;;;5020548;28;20053;-73
2023/06/23 12:11:50;;;;;;;5.57;2.50;;;27.40;93.90;;;;;;5035688;28;20482;-73
2023/06/23 12:14:16;;;;;;;3.97;2.42;;;27.50;94.20;;;;;;5020229;28;20049;-70
2023/06/23 12:16:42;;;;;;;4.72;2.22;;;27.40;94.30;;;;;;5002144;28;20475;-73
2023/06/23 12:19:08;;;;;;;4.28;2.40;;;27.50;94.30;;;;;;5024947;28;20045;-73
2023/06/23 12:21:37;;;;;;;6.55;2.33;;;27.70;93.90;;;;;;5021422;28;20399;-71
2023/06/23 12:24:03;;;;;;;4.82;2.60;;;27.90;93.50;;;;;;5026935;28;20053;-72
2023/06/23 12:26:29;;;;;;;4.82;2.50;;;28.00;93.60;;;;;;5001727;28;20514;-71
2023/06/23 12:29:09;;;;;;;6.57;2.50;;;27.80;93.30;;;;;;5041467;28;20140;-72
2023/06/23 12:31:35;;;;;;;5.40;2.20;;;27.70;91.40;;;;;;5020088;28;20411;-72
2023/06/23 12:34:01;;;;;;;5.18;2.95;;;27.50;92.50;;;;;;5038029;28;20063;-72
2023/06/23 12:36:27;;;;;;;5.05;2.72;;;27.50;92.80;;;;;;5011013;28;20049;-72
2023/06/23 12:38:54;;;;;;;21.27;4.07;;;27.60;92.90;;;;;;5026872;28;20407;-72
2023/06/23 12:41:26;;;;;;;5.32;2.33;;;27.60;92.40;;;;;;5026895;28;20056;-71
2023/06/23 12:43:59;;;;;;;6.30;2.42;;;27.60;92.30;;;;;;5010281;28;20052;-72
2023/06/23 12:46:27;;;;;;;4.72;2.35;;;27.60;92.00;;;;;;5019997;28;20041;-71
2023/06/23 12:48:56;;;;;;;6.05;2.50;;;27.60;92.50;;;;;;5026290;28;20055;-72
2023/06/23 12:51:36;;;;;;;4.50;2.20;;;27.70;92.30;;;;;;5025888;28;20049;-72
2023/06/23 12:54:03;;;;;;;3.80;2.22;;;27.70;90.20;;;;;;5026842;28;20053;-71
2023/06/23 12:56:29;;;;;;;4.55;2.35;;;27.60;90.70;;;;;;5019814;28;20041;-71
2023/06/23 12:58:55;;;;;;;5.30;2.22;;;27.30;91.00;;;;;;5040847;28;20059;-73
2023/06/23 13:01:22;;;;;;;5.00;2.00;;;27.30;91.30;;;;;;5017713;28;20133;-72
2023/06/23 13:03:48;;;;;;;4.32;2.83;;;27.40;91.40;;;;;;5022105;28;20053;-73